createdAt,value
2023-11-09T00:01:05.891Z,7.98
2023-11-09T00:04:08.987Z,8.04
2023-11-09T00:07:10.742Z,8.01
2023-11-09T00:10:12.594Z,7.97
2023-11-09T00:13:14.489Z,8.08
2023-11-09T00:16:16.571Z,7.95
2023-11-09T00:19:25.994Z,7.98
2023-11-09T00:22:27.534Z,7.93
2023-11-09T00:25:29.100Z,7.98
2023-11-09T00:28:30.652Z,7.93
2023-11-09T00:31:32.107Z,7.98
2023-11-09T00:34:35.062Z,7.93
2023-11-09T00:37:36.682Z,7.87
2023-11-09T00:40:38.167Z,7.90
2023-11-09T00:43:39.617Z,7.92
2023-11-09T00:46:41.666Z,7.84
2023-11-09T00:49:44.741Z,8.02
2023-11-09T00:52:46.443Z,7.87
2023-11-09T00:55:47.949Z,7.95
2023-11-09T00:58:49.409Z,7.95
2023-11-09T01:01:51.041Z,7.90
2023-11-09T01:04:54.076Z,7.97
2023-11-09T01:07:55.594Z,8.00
2023-11-09T01:10:57.143Z,7.99
2023-11-09T01:13:58.591Z,7.98
2023-11-09T01:17:00.108Z,8.02
2023-11-09T01:20:02.997Z,8.06
2023-11-09T01:23:04.631Z,8.06
2023-11-09T01:26:06.182Z,7.99
2023-11-09T01:29:07.615Z,7.99
2023-11-09T01:32:09.089Z,7.98
2023-11-09T01:35:11.989Z,8.03
2023-11-09T01:38:13.480Z,7.96
2023-11-09T01:41:14.966Z,7.91
2023-11-09T01:44:16.447Z,7.93
2023-11-09T01:47:17.885Z,8.06
2023-11-09T01:50:21.575Z,7.96
2023-11-09T01:53:23.385Z,8.05
2023-11-09T01:56:24.894Z,8.18
2023-11-09T01:59:26.413Z,8.07
2023-11-09T02:02:27.890Z,8.00
2023-11-09T02:05:30.903Z,8.14
2023-11-09T02:08:33.015Z,8.01
2023-11-09T02:11:34.441Z,8.05
2023-11-09T02:14:36.031Z,8.06
2023-11-09T02:17:37.736Z,8.15
2023-11-09T02:20:41.810Z,8.08
2023-11-09T02:23:43.832Z,8.11
2023-11-09T02:26:47.368Z,8.11
2023-11-09T02:29:48.818Z,8.08
2023-11-09T02:32:50.255Z,8.12
2023-11-09T02:35:51.723Z,8.05
2023-11-09T02:38:53.209Z,8.05
2023-11-09T02:41:56.082Z,8.00
2023-11-09T02:44:57.668Z,7.99
2023-11-09T02:47:59.425Z,7.95
2023-11-09T02:51:00.961Z,8.01
2023-11-09T02:54:02.669Z,7.97
2023-11-09T02:57:05.967Z,7.91
2023-11-09T03:00:10.479Z,8.00
2023-11-09T03:03:12.100Z,7.87
2023-11-09T03:06:13.855Z,7.96
2023-11-09T03:09:15.390Z,7.89
2023-11-09T03:12:18.354Z,7.95
2023-11-09T03:15:20.613Z,8.02
2023-11-09T03:18:23.524Z,7.98
2023-11-09T03:21:25.154Z,8.07
2023-11-09T03:24:26.621Z,8.07
2023-11-09T03:27:29.425Z,8.12
2023-11-09T03:30:30.957Z,7.98
2023-11-09T03:33:32.716Z,8.09
2023-11-09T03:36:34.157Z,8.11
2023-11-09T03:39:35.715Z,8.10
2023-11-09T03:42:38.922Z,8.10
2023-11-09T03:45:40.357Z,8.05
2023-11-09T03:48:42.114Z,8.12
2023-11-09T03:51:43.648Z,8.09
2023-11-09T03:54:45.353Z,8.16
2023-11-09T03:57:48.153Z,8.15
2023-11-09T04:00:52.012Z,8.17
2023-11-09T04:03:53.497Z,8.19
2023-11-09T04:06:55.461Z,8.20
2023-11-09T04:09:57.269Z,8.13
2023-11-09T04:13:00.269Z,8.15
2023-11-09T04:16:02.063Z,8.12
2023-11-09T04:19:03.578Z,8.10
2023-11-09T04:22:05.274Z,8.17
2023-11-09T04:25:07.496Z,8.07
2023-11-09T04:28:10.426Z,8.12
2023-11-09T04:31:11.952Z,8.03
2023-11-09T04:34:13.586Z,8.08
2023-11-09T04:37:15.086Z,7.93
2023-11-09T04:40:17.056Z,7.96
2023-11-09T04:43:20.336Z,7.95
2023-11-09T04:46:21.839Z,7.99
2023-11-09T04:49:23.346Z,7.97
2023-11-09T04:52:25.216Z,7.91
2023-11-09T04:55:26.817Z,7.99
2023-11-09T04:58:30.052Z,7.97
2023-11-09T05:01:31.743Z,7.94
2023-11-09T05:04:39.857Z,8.07
2023-11-09T05:07:41.393Z,8.05
2023-11-09T05:10:42.804Z,8.10
2023-11-09T05:13:45.933Z,8.14
2023-11-09T05:16:47.358Z,8.12
2023-11-09T05:19:48.960Z,8.16
2023-11-09T05:22:50.456Z,8.21
2023-11-09T05:25:55.018Z,8.18
2023-11-09T05:28:58.185Z,8.21
2023-11-09T05:31:59.696Z,8.23
2023-11-09T05:35:07.937Z,8.19
2023-11-09T05:38:10.350Z,8.19
2023-11-09T05:41:18.792Z,8.17
2023-11-09T05:44:21.655Z,8.18
2023-11-09T05:47:23.220Z,8.14
2023-11-09T05:50:25.058Z,8.15
2023-11-09T05:53:26.864Z,7.96
2023-11-09T05:56:34.691Z,7.98
2023-11-09T05:59:44.181Z,7.86
2023-11-09T06:02:45.690Z,7.95
2023-11-09T06:05:47.362Z,7.83
2023-11-09T06:08:48.922Z,7.91
2023-11-09T06:11:50.469Z,7.87
2023-11-09T06:14:53.404Z,7.94
2023-11-09T06:17:54.905Z,7.95
2023-11-09T06:20:56.390Z,8.06
2023-11-09T06:23:57.903Z,7.99
2023-11-09T06:26:59.464Z,7.98
2023-11-09T06:30:02.266Z,7.92
2023-11-09T06:33:06.023Z,7.82
2023-11-09T06:36:15.054Z,7.89
2023-11-09T06:39:16.805Z,7.76
2023-11-09T06:42:19.836Z,7.81
2023-11-09T06:45:22.429Z,7.84
2023-11-09T06:48:35.666Z,7.85
2023-11-09T06:51:37.097Z,7.76
2023-11-09T06:54:49.747Z,7.74
2023-11-09T06:57:52.824Z,7.70
2023-11-09T07:00:55.269Z,7.71
2023-11-09T07:03:58.152Z,7.65
2023-11-09T07:07:05.907Z,7.72
2023-11-09T07:10:16.153Z,7.72
2023-11-09T07:13:23.883Z,7.84
2023-11-09T07:16:25.408Z,7.77
2023-11-09T07:19:28.335Z,7.76
2023-11-09T07:22:39.296Z,7.80
2023-11-09T07:25:41.992Z,7.79
2023-11-09T07:28:43.588Z,7.85
2023-11-09T07:31:45.153Z,7.87
2023-11-09T07:34:48.088Z,8.08
2023-11-09T07:37:49.495Z,8.10
2023-11-09T07:40:57.890Z,8.18
2023-11-09T07:44:06.679Z,8.14
2023-11-09T07:47:08.086Z,8.14
2023-11-09T07:50:11.310Z,8.25
2023-11-09T07:53:13.127Z,8.40
2023-11-09T07:56:20.950Z,8.32
2023-11-09T07:59:22.388Z,8.55
2023-11-09T08:02:23.881Z,8.56
2023-11-09T08:05:28.940Z,8.59
2023-11-09T08:08:36.976Z,8.62
2023-11-09T08:11:47.917Z,8.68
2023-11-09T08:14:49.390Z,8.69
2023-11-09T08:17:52.177Z,8.79
2023-11-09T08:21:01.457Z,8.86
2023-11-09T08:24:10.155Z,8.76
2023-11-09T08:27:17.983Z,8.79
2023-11-09T08:30:19.518Z,8.71
2023-11-09T08:33:29.100Z,8.68
2023-11-09T08:36:32.226Z,8.63
2023-11-09T08:39:33.824Z,8.56
2023-11-09T08:42:35.848Z,8.62
2023-11-09T08:45:37.436Z,8.69
2023-11-09T08:48:52.539Z,8.63
2023-11-09T08:51:55.350Z,8.69
2023-11-09T08:55:03.655Z,8.75
2023-11-09T08:58:05.162Z,8.77
2023-11-09T09:01:07.378Z,8.76
2023-11-09T09:04:09.088Z,8.82
2023-11-09T09:07:24.715Z,8.96
2023-11-09T09:10:35.784Z,9.06
2023-11-09T09:13:44.105Z,9.16
2023-11-09T09:17:01.695Z,9.12
2023-11-09T09:20:11.303Z,9.18
2023-11-09T09:23:30.119Z,9.18
2023-11-09T09:26:31.644Z,9.05
2023-11-09T09:29:33.139Z,9.10
2023-11-09T09:32:34.619Z,9.10
2023-11-09T09:35:42.954Z,9.19
2023-11-09T09:38:48.741Z,9.21
2023-11-09T09:42:04.553Z,9.27
2023-11-09T09:45:06.629Z,9.17
2023-11-09T09:48:15.355Z,9.24
2023-11-09T09:51:16.932Z,9.19
2023-11-09T09:54:19.735Z,9.16
2023-11-09T09:57:27.926Z,9.36
2023-11-09T10:00:36.020Z,9.39
2023-11-09T10:07:19.276Z,9.56
2023-11-09T10:10:30.960Z,9.37
2023-11-09T10:13:43.872Z,9.26
2023-11-09T10:16:45.575Z,9.15
2023-11-09T10:19:48.284Z,9.24
2023-11-09T10:22:53.941Z,9.29
2023-11-09T10:25:58.814Z,9.27
2023-11-09T10:29:11.363Z,9.39
2023-11-09T10:32:19.238Z,9.54
2023-11-09T10:35:22.277Z,9.60
2023-11-09T10:38:32.754Z,9.56
2023-11-09T10:41:54.249Z,9.48
2023-11-09T10:44:57.492Z,9.43
2023-11-09T10:48:10.538Z,9.44
2023-11-09T10:51:26.228Z,9.39
2023-11-09T10:54:32.176Z,9.46
2023-11-09T10:57:37.310Z,9.59
2023-11-09T11:00:38.921Z,9.52
2023-11-09T11:03:49.788Z,9.52
2023-11-09T11:06:57.887Z,9.61
2023-11-09T11:09:59.316Z,9.69
2023-11-09T11:13:07.775Z,9.69
2023-11-09T11:16:17.638Z,9.63
2023-11-09T11:19:27.457Z,9.78
2023-11-09T11:22:44.373Z,9.78
2023-11-09T11:25:58.334Z,9.78
2023-11-09T11:29:01.465Z,9.83
2023-11-09T11:32:17.513Z,9.92
2023-11-09T11:35:31.931Z,9.90
2023-11-09T11:38:33.600Z,9.78
2023-11-09T11:41:42.050Z,9.63
2023-11-09T11:45:17.658Z,9.86
2023-11-09T11:48:26.758Z,9.90
2023-11-09T11:51:39.430Z,9.97
2023-11-09T11:54:42.129Z,10.00
2023-11-09T11:58:02.383Z,10.03
2023-11-09T12:01:05.425Z,10.20
2023-11-09T12:07:36.358Z,10.41
2023-11-09T12:10:37.858Z,10.68
2023-11-09T12:13:39.769Z,10.64
2023-11-09T12:16:43.141Z,10.43
2023-11-09T12:19:44.880Z,10.17
2023-11-09T12:22:46.468Z,10.23
2023-11-09T12:25:51.865Z,10.21
2023-11-09T12:28:53.725Z,10.21
2023-11-09T12:35:32.779Z,10.32
2023-11-09T12:38:41.146Z,10.42
2023-11-09T12:41:42.618Z,10.46
2023-11-09T12:44:56.931Z,10.46
2023-11-09T12:47:59.792Z,10.46
2023-11-09T12:51:08.159Z,10.32
2023-11-09T12:54:09.708Z,10.33
2023-11-09T12:57:11.207Z,10.28
2023-11-09T13:00:19.383Z,10.28
2023-11-09T13:03:22.500Z,10.23
2023-11-09T13:10:01.864Z,10.13
2023-11-09T13:13:03.565Z,10.25
2023-11-09T13:16:15.791Z,10.19
2023-11-09T13:19:21.239Z,10.22
2023-11-09T13:22:39.852Z,10.15
2023-11-09T13:25:48.182Z,10.18
2023-11-09T13:28:49.763Z,10.24
2023-11-09T13:31:52.224Z,10.23
2023-11-09T13:34:55.344Z,10.26
2023-11-09T13:37:56.951Z,10.13
2023-11-09T13:41:06.713Z,10.19
2023-11-09T13:44:08.901Z,10.21
2023-11-09T13:47:10.636Z,10.26
2023-11-09T13:50:19.770Z,10.11
2023-11-09T13:53:21.269Z,10.05
2023-11-09T13:56:22.754Z,10.04
2023-11-09T13:59:38.475Z,10.00
2023-11-09T14:02:39.970Z,10.07
2023-11-09T14:05:49.943Z,9.98
2023-11-09T14:08:51.406Z,9.90
2023-11-09T14:11:59.915Z,9.81
2023-11-09T14:15:08.460Z,9.83
2023-11-09T14:18:10.006Z,9.81
2023-11-09T14:21:19.000Z,9.73
2023-11-09T14:24:20.727Z,9.71
2023-11-09T14:27:22.193Z,9.65
2023-11-09T14:30:30.020Z,9.54
2023-11-09T14:33:31.528Z,9.49
2023-11-09T14:36:40.768Z,9.57
2023-11-09T14:39:49.204Z,9.56
2023-11-09T14:46:30.618Z,9.56
2023-11-09T14:49:39.015Z,9.43
2023-11-09T14:52:51.804Z,9.37
2023-11-09T14:55:53.388Z,9.36
2023-11-09T14:58:54.907Z,9.39
2023-11-09T15:01:56.461Z,9.39
2023-11-09T15:05:04.568Z,9.30
2023-11-09T15:08:07.672Z,9.27
2023-11-09T15:11:16.042Z,9.16
2023-11-09T15:14:21.134Z,9.07
2023-11-09T15:17:28.990Z,9.01
2023-11-09T15:20:30.477Z,8.89
2023-11-09T15:23:33.279Z,8.96
2023-11-09T15:26:34.760Z,8.83
2023-11-09T15:29:36.200Z,8.71
2023-11-09T15:32:37.779Z,8.87
2023-11-09T15:35:39.269Z,8.75
2023-11-09T15:38:49.249Z,8.68
2023-11-09T15:41:50.960Z,8.64
2023-11-09T15:44:52.477Z,8.64
2023-11-09T15:47:54.060Z,8.63
2023-11-09T15:50:55.567Z,8.63
2023-11-09T15:54:05.113Z,8.53
2023-11-09T15:57:20.027Z,8.42
2023-11-09T16:00:21.498Z,8.49
2023-11-09T16:03:23.074Z,8.15
2023-11-09T16:06:30.987Z,8.15
2023-11-09T16:09:33.924Z,8.12
2023-11-09T16:12:49.182Z,8.07
2023-11-09T16:15:58.501Z,8.05
2023-11-09T16:19:00.277Z,7.94
2023-11-09T16:22:01.715Z,8.02
2023-11-09T16:25:06.094Z,7.89
2023-11-09T16:28:08.607Z,7.91
2023-11-09T16:31:10.031Z,7.90
2023-11-09T16:34:11.462Z,7.89
2023-11-09T16:37:12.897Z,7.83
2023-11-09T16:40:15.809Z,7.85
2023-11-09T16:43:23.351Z,7.85
2023-11-09T16:46:24.984Z,7.82
2023-11-09T16:49:33.057Z,7.85
2023-11-09T16:52:34.569Z,7.96
2023-11-09T16:55:44.521Z,7.92
2023-11-09T16:58:46.011Z,7.92
2023-11-09T17:01:54.086Z,7.94
2023-11-09T17:04:55.620Z,7.98
2023-11-09T17:07:57.448Z,7.99
2023-11-09T17:11:07.044Z,8.06
2023-11-09T17:14:08.703Z,8.06
2023-11-09T17:17:17.846Z,8.09
2023-11-09T17:20:19.416Z,8.05
2023-11-09T17:23:20.975Z,8.00
2023-11-09T17:26:23.811Z,7.97
2023-11-09T17:29:25.254Z,7.91
2023-11-09T17:32:26.959Z,7.89
2023-11-09T17:35:28.524Z,7.88
2023-11-09T17:38:29.945Z,7.90
2023-11-09T17:41:32.738Z,7.86
2023-11-09T17:44:34.158Z,7.87
2023-11-09T17:47:35.733Z,7.98
2023-11-09T17:50:39.342Z,7.99
2023-11-09T17:53:42.175Z,7.97
2023-11-09T17:56:44.948Z,7.78
2023-11-09T17:59:46.364Z,7.79
2023-11-09T18:02:47.993Z,7.74
2023-11-09T18:05:49.533Z,7.59
2023-11-09T18:08:57.063Z,7.64
2023-11-09T18:12:00.017Z,7.59
2023-11-09T18:15:01.495Z,7.66
2023-11-09T18:18:03.019Z,7.71
2023-11-09T18:21:04.873Z,7.70
2023-11-09T18:24:13.202Z,7.74
2023-11-09T18:27:16.843Z,7.65
2023-11-09T18:30:25.180Z,7.61
2023-11-09T18:33:33.731Z,7.62
2023-11-09T18:36:35.250Z,7.58
2023-11-09T18:39:36.658Z,7.46
2023-11-09T18:42:45.754Z,7.31
2023-11-09T18:45:47.185Z,7.34
2023-11-09T18:48:55.386Z,7.34
2023-11-09T18:51:56.810Z,7.50
2023-11-09T18:54:58.491Z,7.36
2023-11-09T18:58:08.113Z,7.42
2023-11-09T19:01:09.726Z,7.44
2023-11-09T19:07:15.705Z,7.70
2023-11-09T19:10:17.365Z,7.74
2023-11-09T19:13:20.265Z,7.87
2023-11-09T19:16:21.786Z,7.92
2023-11-09T19:19:30.382Z,8.12
2023-11-09T19:22:32.053Z,8.06
2023-11-09T19:25:40.142Z,8.02
2023-11-09T19:28:42.907Z,8.17
2023-11-09T19:31:58.253Z,8.11
2023-11-09T19:34:59.700Z,8.17
2023-11-09T19:38:07.444Z,8.18
2023-11-09T19:41:08.857Z,8.21
2023-11-09T19:44:17.758Z,8.18
2023-11-09T19:47:32.212Z,8.16
2023-11-09T19:50:33.658Z,8.21
2023-11-09T19:53:35.104Z,8.21
2023-11-09T19:56:36.585Z,8.27
2023-11-09T20:03:15.709Z,8.37
2023-11-09T20:06:17.269Z,8.34
2023-11-09T20:09:18.788Z,8.37
2023-11-09T20:12:26.477Z,8.34
2023-11-09T20:15:29.442Z,8.41
2023-11-09T20:18:31.027Z,8.41
2023-11-09T20:21:39.591Z,8.44
2023-11-09T20:24:47.913Z,8.46
2023-11-09T20:27:49.483Z,8.46
2023-11-09T20:30:58.908Z,8.38
2023-11-09T20:34:00.461Z,8.53
2023-11-09T20:37:02.159Z,8.47
2023-11-09T20:40:03.774Z,8.51
2023-11-09T20:43:05.239Z,8.44
2023-11-09T20:46:08.479Z,8.44
2023-11-09T20:49:10.084Z,8.46
2023-11-09T20:52:11.504Z,8.42
2023-11-09T20:55:13.159Z,8.36
2023-11-09T20:58:14.631Z,8.26
2023-11-09T21:01:17.494Z,8.09
2023-11-09T21:04:18.973Z,7.95
2023-11-09T21:10:55.363Z,8.02
2023-11-09T21:14:01.557Z,7.99
2023-11-09T21:17:04.443Z,7.91
2023-11-09T21:20:26.278Z,7.86
2023-11-09T21:23:27.738Z,7.84
2023-11-09T21:29:58.585Z,7.87
2023-11-09T21:36:30.323Z,7.80
2023-11-09T21:39:41.402Z,7.84
2023-11-09T21:42:42.943Z,7.79
2023-11-09T21:45:50.587Z,7.76
2023-11-09T21:48:53.464Z,7.84
2023-11-09T21:51:54.995Z,7.84
2023-11-09T21:54:56.457Z,7.86
2023-11-09T21:58:05.165Z,7.87
2023-11-09T22:01:06.628Z,7.90
2023-11-09T22:04:16.223Z,7.82
2023-11-09T22:07:18.006Z,7.79
2023-11-09T22:10:19.572Z,7.82
2023-11-09T22:13:21.520Z,7.61
2023-11-09T22:16:29.886Z,7.64
2023-11-09T22:19:32.799Z,7.40
2023-11-09T22:22:34.378Z,7.18
2023-11-09T22:25:36.418Z,7.28
2023-11-09T22:28:37.903Z,7.00
2023-11-09T22:31:39.476Z,7.18
2023-11-09T22:34:42.492Z,7.02
2023-11-09T22:37:43.931Z,6.83
2023-11-09T22:40:45.378Z,6.78
2023-11-09T22:47:15.809Z,6.63
2023-11-09T22:50:18.750Z,6.73
2023-11-09T22:53:20.225Z,6.56
2023-11-09T22:56:21.686Z,6.45
2023-11-09T22:59:36.737Z,6.35
2023-11-09T23:02:38.343Z,6.40
2023-11-09T23:05:41.560Z,6.65
2023-11-09T23:08:43.009Z,6.71
2023-11-09T23:11:44.505Z,6.76
2023-11-09T23:14:45.964Z,6.74
2023-11-09T23:17:47.746Z,6.45
2023-11-09T23:20:57.773Z,6.47
2023-11-09T23:23:59.462Z,6.76
2023-11-09T23:27:00.934Z,6.69
2023-11-09T23:30:02.712Z,6.55
2023-11-09T23:33:04.280Z,6.35
2023-11-09T23:36:08.830Z,6.60
2023-11-09T23:39:10.414Z,6.69
2023-11-09T23:42:18.395Z,6.62
2023-11-09T23:45:20.085Z,6.56
2023-11-09T23:48:21.974Z,6.68
2023-11-09T23:51:25.119Z,6.60
2023-11-09T23:54:26.697Z,6.60
2023-11-09T23:57:28.332Z,6.68
